sensor_id;sensor_type;location;lat;lon;timestamp;P1;durP1;ratioP1;P2;durP2;ratioP2
45734;SDS011;31446;49.632;8.328;2023-12-14T00:13:10;19.98;;;8.95;;
45734;SDS011;31446;49.632;8.328;2023-12-14T00:28:16;19.05;;;9.45;;
45734;SDS011;31446;49.632;8.328;2023-12-14T00:43:23;19.95;;;10.30;;
45734;SDS011;31446;49.632;8.328;2023-12-14T00:58:29;20.05;;;9.43;;
45734;SDS011;31446;49.632;8.328;2023-12-14T01:13:35;27.25;;;9.82;;
45734;SDS011;31446;49.632;8.328;2023-12-14T01:28:41;24.88;;;10.63;;
45734;SDS011;31446;49.632;8.328;2023-12-14T01:43:47;24.23;;;10.07;;
45734;SDS011;31446;49.632;8.328;2023-12-14T01:58:53;27.77;;;10.55;;
45734;SDS011;31446;49.632;8.328;2023-12-14T02:14:02;24.70;;;11.43;;
45734;SDS011;31446;49.632;8.328;2023-12-14T02:29:09;25.63;;;12.73;;
45734;SDS011;31446;49.632;8.328;2023-12-14T02:44:16;18.98;;;11.95;;
45734;SDS011;31446;49.632;8.328;2023-12-14T02:59:22;32.08;;;14.43;;
45734;SDS011;31446;49.632;8.328;2023-12-14T03:14:31;26.73;;;12.52;;
45734;SDS011;31446;49.632;8.328;2023-12-14T03:29:38;21.85;;;8.98;;
45734;SDS011;31446;49.632;8.328;2023-12-14T03:44:44;13.30;;;6.57;;
45734;SDS011;31446;49.632;8.328;2023-12-14T03:59:50;11.15;;;5.85;;
45734;SDS011;31446;49.632;8.328;2023-12-14T04:14:56;12.05;;;6.13;;
45734;SDS011;31446;49.632;8.328;2023-12-14T04:30:02;15.40;;;6.93;;
45734;SDS011;31446;49.632;8.328;2023-12-14T04:45:13;15.18;;;7.18;;
45734;SDS011;31446;49.632;8.328;2023-12-14T05:00:19;12.68;;;7.20;;
45734;SDS011;31446;49.632;8.328;2023-12-14T05:15:25;15.90;;;8.02;;
45734;SDS011;31446;49.632;8.328;2023-12-14T05:30:31;19.05;;;8.30;;
45734;SDS011;31446;49.632;8.328;2023-12-14T05:45:37;13.35;;;6.20;;
45734;SDS011;31446;49.632;8.328;2023-12-14T06:00:44;13.73;;;6.50;;
45734;SDS011;31446;49.632;8.328;2023-12-14T06:15:50;12.38;;;6.28;;
45734;SDS011;31446;49.632;8.328;2023-12-14T06:30:56;12.85;;;6.65;;
45734;SDS011;31446;49.632;8.328;2023-12-14T06:46:04;11.82;;;5.97;;
45734;SDS011;31446;49.632;8.328;2023-12-14T07:01:14;17.50;;;6.40;;
45734;SDS011;31446;49.632;8.328;2023-12-14T07:16:20;14.77;;;7.07;;
45734;SDS011;31446;49.632;8.328;2023-12-14T07:31:27;15.50;;;7.13;;
45734;SDS011;31446;49.632;8.328;2023-12-14T07:46:33;23.20;;;9.40;;
45734;SDS011;31446;49.632;8.328;2023-12-14T08:01:42;11.65;;;5.63;;
45734;SDS011;31446;49.632;8.328;2023-12-14T08:16:49;10.82;;;5.30;;
45734;SDS011;31446;49.632;8.328;2023-12-14T08:31:55;20.05;;;7.53;;
45734;SDS011;31446;49.632;8.328;2023-12-14T08:47:02;16.50;;;7.82;;
45734;SDS011;31446;49.632;8.328;2023-12-14T09:17:40;17.35;;;8.65;;
45734;SDS011;31446;49.632;8.328;2023-12-14T09:32:46;21.38;;;10.85;;
45734;SDS011;31446;49.632;8.328;2023-12-14T09:47:52;19.65;;;9.13;;
45734;SDS011;31446;49.632;8.328;2023-12-14T10:02:59;12.15;;;7.47;;
45734;SDS011;31446;49.632;8.328;2023-12-14T10:18:24;15.05;;;7.25;;
45734;SDS011;31446;49.632;8.328;2023-12-14T10:33:34;14.45;;;8.50;;
45734;SDS011;31446;49.632;8.328;2023-12-14T10:48:42;13.95;;;8.05;;
45734;SDS011;31446;49.632;8.328;2023-12-14T11:03:50;18.58;;;9.40;;
45734;SDS011;31446;49.632;8.328;2023-12-14T11:34:38;13.50;;;8.60;;
45734;SDS011;31446;49.632;8.328;2023-12-14T11:49:46;15.52;;;8.25;;
45734;SDS011;31446;49.632;8.328;2023-12-14T12:04:53;12.65;;;7.60;;
45734;SDS011;31446;49.632;8.328;2023-12-14T12:19:59;14.00;;;9.18;;
45734;SDS011;31446;49.632;8.328;2023-12-14T12:35:07;13.23;;;8.80;;
45734;SDS011;31446;49.632;8.328;2023-12-14T12:50:13;13.57;;;7.05;;
45734;SDS011;31446;49.632;8.328;2023-12-14T13:05:19;11.52;;;6.95;;
45734;SDS011;31446;49.632;8.328;2023-12-14T13:20:27;10.43;;;7.40;;
45734;SDS011;31446;49.632;8.328;2023-12-14T13:35:33;9.82;;;6.57;;
45734;SDS011;31446;49.632;8.328;2023-12-14T13:50:40;7.90;;;4.97;;
45734;SDS011;31446;49.632;8.328;2023-12-14T14:05:46;8.00;;;5.40;;
45734;SDS011;31446;49.632;8.328;2023-12-14T14:20:52;5.47;;;3.22;;
45734;SDS011;31446;49.632;8.328;2023-12-14T14:35:58;3.28;;;2.30;;
45734;SDS011;31446;49.632;8.328;2023-12-14T14:51:07;4.80;;;2.80;;
45734;SDS011;31446;49.632;8.328;2023-12-14T15:06:13;3.83;;;2.70;;
45734;SDS011;31446;49.632;8.328;2023-12-14T15:21:20;2.83;;;1.67;;
45734;SDS011;31446;49.632;8.328;2023-12-14T15:36:26;4.10;;;2.30;;
45734;SDS011;31446;49.632;8.328;2023-12-14T15:51:39;2.38;;;2.05;;
45734;SDS011;31446;49.632;8.328;2023-12-14T16:06:45;2.40;;;2.20;;
45734;SDS011;31446;49.632;8.328;2023-12-14T16:21:52;4.15;;;2.78;;
45734;SDS011;31446;49.632;8.328;2023-12-14T16:36:58;2.15;;;1.95;;
45734;SDS011;31446;49.632;8.328;2023-12-14T16:52:04;3.75;;;2.33;;
45734;SDS011;31446;49.632;8.328;2023-12-14T17:07:10;4.57;;;2.50;;
45734;SDS011;31446;49.632;8.328;2023-12-14T17:22:17;7.72;;;2.83;;
45734;SDS011;31446;49.632;8.328;2023-12-14T17:37:23;3.22;;;2.38;;
45734;SDS011;31446;49.632;8.328;2023-12-14T17:52:32;4.28;;;2.78;;
45734;SDS011;31446;49.632;8.328;2023-12-14T18:07:39;4.60;;;2.38;;
45734;SDS011;31446;49.632;8.328;2023-12-14T18:22:55;3.03;;;2.03;;
45734;SDS011;31446;49.632;8.328;2023-12-14T18:38:02;4.22;;;2.50;;
45734;SDS011;31446;49.632;8.328;2023-12-14T18:53:08;6.55;;;3.80;;
45734;SDS011;31446;49.632;8.328;2023-12-14T19:08:15;6.32;;;3.35;;
45734;SDS011;31446;49.632;8.328;2023-12-14T19:23:21;5.95;;;3.88;;
45734;SDS011;31446;49.632;8.328;2023-12-14T19:38:27;8.20;;;4.40;;
45734;SDS011;31446;49.632;8.328;2023-12-14T19:53:33;9.88;;;4.80;;
45734;SDS011;31446;49.632;8.328;2023-12-14T20:08:39;6.38;;;4.35;;
45734;SDS011;31446;49.632;8.328;2023-12-14T20:23:46;8.20;;;4.88;;
45734;SDS011;31446;49.632;8.328;2023-12-14T20:38:52;8.43;;;5.50;;
45734;SDS011;31446;49.632;8.328;2023-12-14T20:53:58;16.80;;;8.73;;
45734;SDS011;31446;49.632;8.328;2023-12-14T21:09:05;13.45;;;7.38;;
45734;SDS011;31446;49.632;8.328;2023-12-14T21:24:12;14.90;;;7.85;;
45734;SDS011;31446;49.632;8.328;2023-12-14T21:39:20;14.05;;;8.90;;
45734;SDS011;31446;49.632;8.328;2023-12-14T21:54:26;15.77;;;9.52;;
45734;SDS011;31446;49.632;8.328;2023-12-14T22:09:32;20.05;;;9.90;;
45734;SDS011;31446;49.632;8.328;2023-12-14T22:24:38;18.10;;;9.57;;
45734;SDS011;31446;49.632;8.328;2023-12-14T22:39:47;18.13;;;9.52;;
45734;SDS011;31446;49.632;8.328;2023-12-14T22:54:53;14.27;;;8.32;;
45734;SDS011;31446;49.632;8.328;2023-12-14T23:09:59;15.27;;;8.07;;
45734;SDS011;31446;49.632;8.328;2023-12-14T23:25:06;18.83;;;9.00;;
45734;SDS011;31446;49.632;8.328;2023-12-14T23:40:13;16.02;;;9.15;;
45734;SDS011;31446;49.632;8.328;2023-12-14T23:55:19;17.65;;;9.38;;
